Close

Questo sito utlizza cookie. Può leggere come li usiamo nella nostra Privacy Policy.

Ronchi Tower
Ronchi Tower

News

Posted by Fabio Davanzo - 09 Jan 2017
Views: 69

Oggi 9 gennaio 2017, andando a lavoro ho visto quello che volevo vedere, i primi automezzi da lavoro appostati difronte il terminal che iniziavano a sistemare il terreno dove sorgerà il nuovo polo intermodale. Dopo lunghi anni di rinvii e diatribe, questa è veramente la volta buona. 

...

From Facebook

METAR & TAF

2017/01/18 22:50 LIPQ 182250Z 08007KT 040V100 CAVOK 02/M08 Q1028
2017/01/18 18:25 TAF LIPQ 181700Z 1818/1918 06012KT 9999 FEW040
2017/01/19 01:50 LIPZ 190150Z 06014KT CAVOK 03/M05 Q1027 NOSIG
2017/01/18 18:21 TAF LIPZ 181700Z 1818/1924 04016KT CAVOK
2017/01/19 01:50 LIPH 190150Z AUTO 01003KT 320V060 9999 BKN095/// 02/M05 Q1028
2017/01/18 18:21 TAF LIPH 181700Z 1818/1918 06010KT 9999 FEW050
2017/01/19 01:20 LIRF 190120Z 03014G24KT CAVOK 06/M01 Q1017 NOSIG
2017/01/18 18:25 TAF LIRF 181700Z 1818/1924 03015KT 9999 SCT030 TEMPO 1818/1903 02016G26KT
2017/01/19 01:50 LIML 190150Z 18002KT CAVOK M02/M05 Q1028 NOSIG
2017/01/18 18:25 TAF LIML 181700Z 1818/1918 VRB05KT CAVOK
2017/01/19 01:50 EDDM 190150Z 04006KT 9000 BKN020 M09/M11 Q1032 R88/190095 NOSIG
2017/01/18 18:27 TAF EDDM 181700Z 1818/1924 08008KT 9999 BKN025 BECMG 1821/1824 BKN012 BECMG 1908/1911 SCT012 BECMG 1922/1924 2000 BR OVC004
2017/01/19 01:50 EGSS 190150Z AUTO 06002KT 9000 NCD M02/M03 Q1037
2017/01/18 21:24 TAF AMD EGSS 182115Z 1821/1924 17004KT 9999 FEW040 PROB30 1821/1909 4000 BR BECMG 1900/1903 8000 BECMG 1909/1912 9999 BECMG 1918/1921 5000 BR

FlightRadar24

Radar Meteo

Traffic data

Dicembre 2016

Passeggeri: 55409+5,3% (rank: 24)
Nazionali 37138 +17,6% 23°
Internazionali 17945 -13,7% 22°

Movimenti: 1340+23,4% (rank: 18)
Tot commerciale 668 +4,0% 21°
Aviazione generale 672 +51,4%

Cargo (tons): 24,5-12,6% (rank: 21)

Gennaio - Dicembre 2016

Passeggeri: 727409-1,9% (rank: 24)
Nazionali 447545 -2,6% 23°
Internazionali 276821 -0,7% 26°

Movimenti: 15890+8,3% (rank: 22)
Tot commerciale 8418 +1,3% 24°
Aviazione generale 7472 +17,4%

Cargo (tons): 447,6-3,6% (rank: 19)

Photo

Canadair CL-215 CL-415
Canadair CL-215 CL-415
Distinct views: 5
Polo Intermodale
Polo Intermodale
Distinct views: 37
Polo Intermodale
Polo Intermodale
Distinct views: 50
Piper PA-32R Turbo Saratoga SP
Piper PA-32R Turbo Saratoga SP
Total views: 358